Time;durP1;ratioP1;P1;durP2;ratioP2;P2;SDS_P1;SDS_P2;PMS_P1;PMS_P2;Temp;Humidity;BMP_temperature;BMP_pressure;BME280_temperature;BME280_humidity;BME280_pressure;Samples;Min_cycle;Max_cycle;Signal;HPM_P1;HPM_P2
2022/05/27 00:00:41;;;;;;;;;2.50;2.00;;;;;17.55;48.87;101922.81;5122462;27;45445;-61
2022/05/27 00:03:06;;;;;;;;;1.00;0.75;;;;;17.55;49.20;101930.75;5108414;27;45370;-61
2022/05/27 00:05:31;;;;;;;;;2.00;0.00;;;;;17.55;48.92;101923.66;5111163;27;67587;-62
2022/05/27 00:07:57;;;;;;;;;2.00;1.25;;;;;17.54;48.96;101923.72;5121113;27;64529;-61
2022/05/27 00:10:22;;;;;;;;;4.50;1.50;;;;;17.52;49.14;101929.06;5115455;27;58107;-62
2022/05/27 00:12:47;;;;;;;;;2.75;0.25;;;;;17.48;49.10;101922.16;5114984;27;66954;-62
2022/05/27 00:15:13;;;;;;;;;2.50;2.00;;;;;17.46;49.31;101918.72;5115831;27;63961;-62
2022/05/27 00:17:38;;;;;;;;;3.00;1.25;;;;;17.43;49.14;101919.69;5121083;27;45299;-61
2022/05/27 00:20:04;;;;;;;;;1.75;1.50;;;;;17.40;49.49;101918.94;5112955;27;45323;-61
2022/05/27 00:22:29;;;;;;;;;2.50;0.00;;;;;17.38;49.32;101920.78;5116282;27;45460;-61
2022/05/27 00:24:54;;;;;;;;;4.25;1.75;;;;;17.40;49.88;101916.28;5120102;27;65652;-61
2022/05/27 00:27:20;;;;;;;;;2.00;0.50;;;;;17.40;49.55;101908.34;5114287;27;66680;-62
2022/05/27 00:29:45;;;;;;;;;2.00;2.00;;;;;17.41;49.61;101904.78;5100259;27;46594;-60
2022/05/27 00:32:10;;;;;;;;;2.25;0.50;;;;;17.44;49.61;101904.66;5114118;27;65920;-61
2022/05/27 00:34:36;;;;;;;;;1.25;1.25;;;;;17.48;49.81;101900.16;5118198;27;65388;-62
2022/05/27 00:37:05;;;;;;;;;2.75;1.50;;;;;17.46;49.40;101897.56;5114368;27;64767;-61
2022/05/27 00:39:30;;;;;;;;;2.00;2.00;;;;;17.42;49.37;101887.97;5099648;27;45256;-61
2022/05/27 00:41:56;;;;;;;;;1.75;1.00;;;;;17.44;49.78;101887.03;5116579;27;45484;-61
2022/05/27 00:44:21;;;;;;;;;3.75;0.75;;;;;17.46;49.71;101890.47;5112245;27;69328;-61
2022/05/27 00:46:46;;;;;;;;;2.00;1.50;;;;;17.45;49.57;101882.56;5119277;27;64297;-61
2022/05/27 00:49:15;;;;;;;;;1.00;1.00;;;;;17.42;49.63;101882.69;5115237;27;62259;-61
2022/05/27 00:51:58;;;;;;;;;2.00;2.00;;;;;17.37;49.99;101879.34;5121970;27;45365;-61
2022/05/27 00:54:25;;;;;;;;;2.00;1.50;;;;;17.32;49.98;101889.25;5113827;27;46210;-61
2022/05/27 00:56:57;;;;;;;;;1.50;0.75;;;;;17.25;49.90;101881.53;5098227;27;45418;-61
2022/05/27 00:59:53;;;;;;;;;1.75;0.75;;;;;17.26;49.94;101885.03;5121857;27;45314;-62
2022/05/27 01:02:19;;;;;;;;;2.50;2.25;;;;;17.21;50.18;101895.81;5088654;27;45640;-62
2022/05/27 01:04:45;;;;;;;;;2.00;1.75;;;;;17.17;50.23;101886.22;5115124;27;46044;-61
2022/05/27 01:07:10;;;;;;;;;3.50;0.75;;;;;17.16;50.01;101883.66;5096609;27;45267;-61
2022/05/27 01:09:38;;;;;;;;;3.75;0.75;;;;;17.13;50.44;101876.69;5121868;27;45459;-61
2022/05/27 01:12:04;;;;;;;;;1.75;1.00;;;;;17.13;50.56;101881.13;5096562;27;45330;-61
2022/05/27 01:14:52;;;;;;;;;3.00;0.75;;;;;17.07;50.32;101880.44;5120867;27;45237;-61
2022/05/27 01:18:08;;;;;;;;;2.50;1.25;;;;;17.04;50.43;101885.81;5117304;27;45235;-62
2022/05/27 01:20:51;;;;;;;;;1.50;1.50;;;;;16.99;50.56;101874.53;5071214;27;45510;-62
2022/05/27 01:23:45;;;;;;;;;1.00;1.00;;;;;16.96;50.75;101877.28;5117208;27;45440;-61
2022/05/27 01:26:28;;;;;;;;;2.75;1.25;;;;;16.93;50.75;101874.78;5121156;27;45428;-63
2022/05/27 01:29:03;;;;;;;;;3.00;2.00;;;;;16.91;51.24;101879.25;5090892;27;45450;-61
2022/05/27 01:31:31;;;;;;;;;2.25;1.50;;;;;16.89;51.03;101867.84;5114515;27;45456;-62
2022/05/27 01:34:15;;;;;;;;;2.00;2.00;;;;;16.86;51.13;101876.75;5117833;27;45615;-62
2022/05/27 01:37:11;;;;;;;;;0.75;0.75;;;;;16.85;51.55;101875.00;5120256;27;45249;-62
2022/05/27 01:39:55;;;;;;;;;1.50;1.25;;;;;16.86;51.64;101875.91;5119573;27;45411;-62
2022/05/27 01:42:52;;;;;;;;;2.75;1.75;;;;;16.87;51.60;101877.63;5106452;27;45240;-62
2022/05/27 01:45:22;;;;;;;;;4.00;3.00;;;;;16.85;51.56;101871.53;5109317;27;45751;-62
2022/05/27 01:48:11;;;;;;;;;1.50;0.25;;;;;16.86;51.81;101875.91;5102509;27;45390;-62
2022/05/27 01:50:53;;;;;;;;;1.00;0.25;;;;;16.86;51.40;101873.25;5113458;27;45859;-62
2022/05/27 01:53:26;;;;;;;;;1.25;1.25;;;;;16.87;51.99;101874.97;5102458;27;45465;-62
2022/05/27 01:56:00;;;;;;;;;2.00;1.00;;;;;16.86;51.53;101882.03;5101077;27;45316;-62
2022/05/27 01:58:30;;;;;;;;;1.00;1.00;;;;;16.84;51.77;101872.47;5097419;27;46357;-62
2022/05/27 02:00:56;;;;;;;;;2.50;2.00;;;;;16.82;51.56;101883.03;5100153;27;45919;-61
2022/05/27 02:03:25;;;;;;;;;0.50;0.50;;;;;16.80;52.04;101882.25;5114285;27;64596;-62
2022/05/27 02:06:03;;;;;;;;;1.25;1.25;;;;;16.77;51.89;101876.16;5114213;27;45330;-62
2022/05/27 02:08:43;;;;;;;;;3.00;1.75;;;;;16.76;51.95;101874.47;5095338;27;45528;-61
2022/05/27 02:11:16;;;;;;;;;1.50;1.50;;;;;16.74;51.64;101877.16;5113318;27;45373;-62
2022/05/27 02:13:48;;;;;;;;;2.50;2.50;;;;;16.73;51.71;101874.56;5102360;27;45334;-61
2022/05/27 02:16:18;;;;;;;;;1.50;1.50;;;;;16.72;52.04;101872.84;5102206;27;45527;-61
2022/05/27 02:18:50;;;;;;;;;1.50;1.50;;;;;16.67;51.92;101870.34;5118368;27;45523;-61
2022/05/27 02:21:22;;;;;;;;;2.50;1.75;;;;;16.66;52.07;101879.19;5100658;27;45915;-61
2022/05/27 02:23:56;;;;;;;;;2.50;2.00;;;;;16.63;51.47;101877.53;5112093;27;45668;-62
2022/05/27 02:26:25;;;;;;;;;2.75;2.25;;;;;16.58;52.22;101881.25;5101898;27;45333;-61
2022/05/27 02:28:56;;;;;;;;;1.50;1.00;;;;;16.56;51.91;101878.66;5101118;27;45454;-60
2022/05/27 02:31:24;;;;;;;;;2.75;2.00;;;;;16.53;52.14;101876.09;5101834;27;45355;-60
2022/05/27 02:37:08;;;;;;;;;4.75;1.75;;;;;16.53;51.97;101876.09;5101282;27;45410;-60
2022/05/27 02:39:34;;;;;;;;;2.00;2.00;;;;;16.54;52.16;101883.13;5100793;27;46236;-60
2022/05/27 02:42:13;;;;;;;;;1.25;1.25;;;;;16.50;52.51;101874.44;5123758;27;45466;-60
2022/05/27 02:44:42;;;;;;;;;3.75;2.00;;;;;16.50;52.14;101881.47;5092219;27;45488;-60
2022/05/27 02:47:24;;;;;;;;;2.00;2.00;;;;;16.47;51.95;101874.53;5117119;27;45285;-61
2022/05/27 02:50:10;;;;;;;;;6.00;3.00;;;;;16.48;52.31;101875.38;5116874;27;46432;-62
2022/05/27 02:53:12;;;;;;;;;1.75;1.00;;;;;16.49;51.96;101872.69;5117420;27;45832;-62
2022/05/27 02:55:40;;;;;;;;;2.75;1.00;;;;;16.48;52.09;101883.31;5096788;27;45457;-62
2022/05/27 02:58:06;;;;;;;;;1.00;1.00;;;;;16.46;52.38;101872.78;5123757;27;45210;-63
2022/05/27 03:00:33;;;;;;;;;3.00;2.00;;;;;16.46;52.14;101877.22;5123361;27;46233;-63
2022/05/27 03:02:59;;;;;;;;;3.50;2.00;;;;;16.42;51.92;101884.38;5116153;27;45426;-63
2022/05/27 03:05:56;;;;;;;;;4.25;3.25;;;;;16.39;52.03;101876.56;5117441;27;45286;-63
2022/05/27 03:08:27;;;;;;;;;4.25;2.50;;;;;16.40;52.54;101882.72;5121404;27;45384;-62
2022/05/27 03:11:08;;;;;;;;;5.50;4.25;;;;;16.44;52.52;101884.34;5102170;27;46136;-62
2022/05/27 03:14:15;;;;;;;;;2.00;2.00;;;;;16.44;52.29;101881.69;5118179;27;45768;-62
2022/05/27 03:16:59;;;;;;;;;3.00;2.00;;;;;16.47;52.16;101881.59;5120275;27;45263;-62
2022/05/27 03:19:42;;;;;;;;;2.75;2.00;;;;;16.45;52.69;101878.13;5123384;27;45302;-62
2022/05/27 03:22:34;;;;;;;;;2.50;2.00;;;;;16.41;52.71;101882.66;5119326;27;45452;-62
2022/05/27 03:25:31;;;;;;;;;2.50;2.00;;;;;16.39;52.61;101878.34;5123116;27;45825;-62
2022/05/27 03:28:14;;;;;;;;;1.50;1.25;;;;;16.36;52.68;101881.97;5118445;27;45451;-62
2022/05/27 03:31:05;;;;;;;;;3.25;2.25;;;;;16.32;53.38;101881.19;5102841;27;45517;-63
2022/05/27 03:33:36;;;;;;;;;3.00;2.00;;;;;16.31;53.15;101884.75;5104714;27;45581;-62
2022/05/27 03:36:01;;;;;;;;;6.00;3.00;;;;;16.29;52.87;101873.38;5101398;27;45323;-63
2022/05/27 03:38:36;;;;;;;;;4.00;2.00;;;;;16.25;53.31;101863.78;5121069;27;45345;-62
2022/05/27 03:41:06;;;;;;;;;2.75;2.00;;;;;16.30;52.96;101874.22;5115111;27;45420;-62
2022/05/27 03:43:33;;;;;;;;;4.00;3.00;;;;;16.31;52.88;101878.59;5100634;27;47056;-62
2022/05/27 03:46:00;;;;;;;;;4.00;3.00;;;;;16.32;53.37;101872.38;5102423;27;45318;-62
2022/05/27 03:48:28;;;;;;;;;5.50;4.00;;;;;16.32;52.67;101878.56;5119790;27;45463;-63
2022/05/27 03:50:58;;;;;;;;;7.50;5.00;;;;;16.31;53.23;101881.25;5103317;27;45490;-63
2022/05/27 03:54:03;;;;;;;;;4.50;3.75;;;;;16.28;53.31;101882.19;5104353;27;46035;-62
2022/05/27 03:56:09;;;;;;;;;9.25;5.00;;;;;16.28;53.38;101884.84;5114800;27;45242;-62
2022/05/27 03:58:34;;;;;;;;;5.25;5.25;;;;;16.29;53.13;101891.84;5118403;27;45354;-62
2022/05/27 04:00:59;;;;;;;;;7.00;5.75;;;;;16.27;53.18;101888.41;5116677;27;66963;-62
2022/05/27 04:03:25;;;;;;;;;8.00;6.00;;;;;16.27;53.21;101884.88;5115132;27;62808;-62
2022/05/27 04:05:50;;;;;;;;;5.00;5.00;;;;;16.25;52.97;101870.88;5113976;27;65364;-63
2022/05/27 04:08:16;;;;;;;;;6.50;4.00;;;;;16.30;53.18;101876.88;5114042;27;45437;-63
2022/05/27 04:10:42;;;;;;;;;6.00;4.00;;;;;16.30;52.80;101883.00;5114336;27;45478;-62
2022/05/27 04:13:07;;;;;;;;;9.25;5.25;;;;;16.28;53.12;101884.84;5115106;27;46392;-62
2022/05/27 04:15:32;;;;;;;;;7.50;6.50;;;;;16.30;52.99;101883.00;5114426;27;45337;-63
2022/05/27 04:17:58;;;;;;;;;7.75;5.25;;;;;16.33;53.33;101889.97;5117479;27;59666;-63
2022/05/27 04:20:23;;;;;;;;;10.25;5.75;;;;;16.33;53.43;101882.91;5116453;27;50218;-63
2022/05/27 04:22:54;;;;;;;;;9.00;5.00;;;;;16.35;53.23;101890.78;5110821;27;68325;-63
2022/05/27 04:25:20;;;;;;;;;6.25;4.75;;;;;16.34;53.29;101899.63;5118825;27;45490;-64
2022/05/27 04:27:45;;;;;;;;;6.50;5.50;;;;;16.32;53.50;101893.53;5110239;27;45382;-63
2022/05/27 04:30:11;;;;;;;;;8.50;5.75;;;;;16.29;53.00;101902.44;5120251;27;53191;-64
2022/05/27 04:32:37;;;;;;;;;8.25;6.00;;;;;16.29;53.29;101897.13;5117035;27;45720;-63
2022/05/27 04:35:02;;;;;;;;;8.00;6.00;;;;;16.26;53.68;101899.03;5117909;27;45377;-64
2022/05/27 04:37:28;;;;;;;;;8.25;6.50;;;;;16.24;53.82;101900.84;5116564;27;45361;-63
2022/05/27 04:39:53;;;;;;;;;6.25;5.75;;;;;16.22;53.60;101892.97;5120598;27;45311;-63
2022/05/27 04:42:19;;;;;;;;;10.75;8.00;;;;;16.22;53.96;101894.72;5116206;27;46993;-63
2022/05/27 04:44:44;;;;;;;;;9.50;6.00;;;;;16.22;53.86;101890.34;5111209;27;45503;-63
2022/05/27 04:47:11;;;;;;;;;9.25;6.50;;;;;16.24;53.80;101890.28;5121586;27;51385;-64
2022/05/27 04:49:53;;;;;;;;;7.50;5.75;;;;;16.26;53.86;101891.09;5116150;27;45213;-63
2022/05/27 04:52:31;;;;;;;;;8.50;7.50;;;;;16.29;53.82;101891.00;5115788;27;46890;-63
2022/05/27 04:54:58;;;;;;;;;14.00;6.00;;;;;16.32;53.62;101898.81;5115525;27;45346;-64
2022/05/27 04:57:27;;;;;;;;;8.75;6.75;;;;;16.31;53.36;101897.94;5117020;27;45216;-63
2022/05/27 04:59:53;;;;;;;;;7.75;6.50;;;;;16.32;53.68;101898.81;5120591;27;45461;-63
2022/05/27 05:02:20;;;;;;;;;9.25;5.75;;;;;16.32;53.32;101899.69;5108890;27;45414;-64
2022/05/27 05:04:46;;;;;;;;;7.50;6.25;;;;;16.32;54.03;101894.41;5115532;27;45758;-63
2022/05/27 05:07:12;;;;;;;;;7.25;6.00;;;;;16.31;53.58;101890.03;5115709;27;45315;-64
2022/05/27 05:09:41;;;;;;;;;10.50;6.00;;;;;16.31;54.04;101891.81;5117437;27;59624;-64
2022/05/27 05:12:08;;;;;;;;;6.25;6.25;;;;;16.32;53.61;101890.88;5108125;27;46137;-63
2022/05/27 05:14:34;;;;;;;;;10.50;6.75;;;;;16.31;53.67;101890.03;5114064;27;45420;-63
2022/05/27 05:16:59;;;;;;;;;8.75;5.50;;;;;16.32;53.36;101904.97;5114389;27;45276;-63
2022/05/27 05:19:24;;;;;;;;;6.25;6.25;;;;;16.31;54.29;101902.38;5117697;27;59322;-63
2022/05/27 05:21:50;;;;;;;;;8.75;4.25;;;;;16.32;53.84;101904.09;5118228;27;46098;-63
2022/05/27 05:24:15;;;;;;;;;9.75;7.00;;;;;16.33;53.75;101901.41;5113823;27;45425;-63
2022/05/27 05:26:40;;;;;;;;;7.00;5.50;;;;;16.29;53.64;101901.56;5114136;27;45427;-63
2022/05/27 05:29:06;;;;;;;;;10.75;7.25;;;;;16.31;54.15;101899.75;5116861;27;64064;-63
2022/05/27 05:31:32;;;;;;;;;9.75;7.75;;;;;16.26;54.21;101891.94;5113029;27;46154;-64
2022/05/27 05:33:59;;;;;;;;;8.75;7.50;;;;;16.30;53.95;101901.50;5117789;27;45697;-63
2022/05/27 05:36:25;;;;;;;;;10.00;8.25;;;;;16.31;54.35;101891.81;5114295;27;45493;-63
2022/05/27 05:38:51;;;;;;;;;10.00;8.25;;;;;16.29;54.35;101897.13;5118766;27;45567;-64
2022/05/27 05:41:32;;;;;;;;;9.75;8.50;;;;;16.28;53.96;101898.03;5114214;27;47224;-64
2022/05/27 05:43:59;;;;;;;;;11.50;7.75;;;;;16.27;54.79;101906.91;5115818;27;45713;-63
2022/05/27 05:46:26;;;;;;;;;10.25;9.00;;;;;16.27;54.22;101904.25;5116319;27;45751;-63
2022/05/27 05:48:51;;;;;;;;;10.00;8.25;;;;;16.26;54.06;101902.50;5097132;27;46235;-63
2022/05/27 05:51:19;;;;;;;;;14.00;10.25;;;;;16.25;54.12;101899.91;5119774;27;51666;-63
2022/05/27 05:53:44;;;;;;;;;9.50;9.50;;;;;16.26;54.37;101905.16;5120984;27;45460;-63
2022/05/27 05:56:10;;;;;;;;;14.75;10.25;;;;;16.26;54.38;101913.09;5114865;27;63690;-65
2022/05/27 05:58:35;;;;;;;;;13.00;9.75;;;;;16.23;54.54;101905.25;5115961;27;45172;-63
2022/05/27 06:01:01;;;;;;;;;15.50;13.00;;;;;16.23;54.58;101902.59;5113148;27;46100;-63
2022/05/27 06:03:26;;;;;;;;;11.75;10.75;;;;;16.26;54.79;101904.31;5114176;27;45228;-63
2022/05/27 06:05:52;;;;;;;;;13.50;12.75;;;;;16.26;54.82;101905.16;5098998;27;63213;-64
2022/05/27 06:08:21;;;;;;;;;15.00;13.00;;;;;16.23;55.09;101901.75;5120649;27;45515;-64
2022/05/27 06:10:47;;;;;;;;;14.75;13.00;;;;;16.25;54.51;101906.06;5101391;27;45390;-63
2022/05/27 06:13:13;;;;;;;;;17.25;14.00;;;;;16.24;54.28;101895.56;5120619;27;45347;-64
2022/05/27 06:15:38;;;;;;;;;19.00;13.75;;;;;16.30;54.64;101900.63;5118379;27;45391;-63
2022/05/27 06:18:05;;;;;;;;;15.50;12.50;;;;;16.29;55.16;101902.44;5117117;27;67475;-63
2022/05/27 06:20:31;;;;;;;;;18.00;14.00;;;;;16.29;54.90;101901.56;5116310;27;47043;-65
2022/05/27 06:22:56;;;;;;;;;15.25;13.50;;;;;16.32;54.25;101912.00;5113471;27;45428;-63
2022/05/27 06:25:22;;;;;;;;;13.75;12.75;;;;;16.32;54.56;101902.34;5123469;27;61202;-63
2022/05/27 06:27:47;;;;;;;;;14.00;12.50;;;;;16.29;54.84;101898.94;5122482;27;45169;-63
2022/05/27 06:35:42;;;;;;;;;13.25;9.50;;;;;16.24;55.14;101914.91;5124417;27;45286;-63
2022/05/27 06:38:08;;;;;;;;;12.25;10.25;;;;;16.25;55.05;101919.25;5100022;27;45315;-63
2022/05/27 06:40:34;;;;;;;;;9.75;7.50;;;;;16.25;55.11;101921.06;5123550;27;46320;-64
2022/05/27 06:42:59;;;;;;;;;7.75;6.00;;;;;16.28;55.46;101911.25;5123525;27;45559;-64
2022/05/27 06:45:24;;;;;;;;;10.00;7.50;;;;;16.27;55.56;101917.47;5123296;27;52291;-65
2022/05/27 06:47:50;;;;;;;;;7.00;5.50;;;;;16.27;55.24;101916.56;5117290;27;67489;-63
2022/05/27 06:50:15;;;;;;;;;7.00;7.00;;;;;16.26;55.45;101917.50;5104731;27;52676;-63
2022/05/27 06:52:41;;;;;;;;;8.00;8.00;;;;;16.24;55.21;101921.97;5122165;27;45504;-64
2022/05/27 06:55:11;;;;;;;;;7.50;7.00;;;;;16.25;55.81;101924.53;5118616;27;45313;-63
2022/05/27 06:57:37;;;;;;;;;8.25;7.00;;;;;16.27;56.14;101921.84;5104879;27;45337;-63
2022/05/27 07:00:05;;;;;;;;;9.25;6.00;;;;;16.27;55.30;101920.09;5105095;27;47127;-65
2022/05/27 07:02:31;;;;;;;;;8.50;7.00;;;;;16.27;55.59;101920.09;5114459;27;46366;-64
2022/05/27 07:04:56;;;;;;;;;8.25;6.00;;;;;16.28;55.55;101921.81;5123021;27;58841;-63
2022/05/27 07:07:26;;;;;;;;;9.00;6.50;;;;;16.30;55.95;101921.78;5116911;27;45382;-64
2022/05/27 07:09:52;;;;;;;;;10.50;8.00;;;;;16.29;55.69;101917.41;5123413;27;46022;-63
2022/05/27 07:12:17;;;;;;;;;9.25;8.25;;;;;16.32;55.86;101914.66;5117148;27;45207;-63
2022/05/27 07:14:43;;;;;;;;;13.25;8.50;;;;;16.32;55.94;101912.91;5123461;27;45593;-64
2022/05/27 07:17:08;;;;;;;;;16.00;9.00;;;;;16.38;56.12;101919.75;5122521;27;61257;-63
2022/05/27 07:19:34;;;;;;;;;12.25;9.50;;;;;16.45;56.05;101909.81;5123351;27;46148;-63
2022/05/27 07:22:00;;;;;;;;;9.00;8.00;;;;;16.49;55.67;101912.34;5123282;27;45966;-63
2022/05/27 07:24:25;;;;;;;;;12.50;9.25;;;;;16.61;55.60;101920.75;5114127;27;45346;-63
2022/05/27 07:26:51;;;;;;;;;8.00;5.50;;;;;16.68;55.48;101911.75;5114684;27;45283;-63
2022/05/27 07:29:16;;;;;;;;;11.00;9.00;;;;;16.77;55.25;101908.78;5120022;27;45913;-63
2022/05/27 07:31:43;;;;;;;;;12.25;8.50;;;;;16.84;55.37;101909.47;5114454;27;61768;-63
2022/05/27 07:34:08;;;;;;;;;9.00;8.00;;;;;16.92;55.12;101912.69;5120396;27;45529;-63
2022/05/27 07:36:34;;;;;;;;;10.50;8.50;;;;;17.00;55.08;101913.31;5114970;27;51790;-63
2022/05/27 07:38:59;;;;;;;;;11.50;10.00;;;;;17.10;55.10;101918.25;5122461;27;45248;-64
2022/05/27 07:41:27;;;;;;;;;11.75;9.25;;;;;17.19;54.96;101918.81;5113120;27;68171;-63
2022/05/27 07:43:53;;;;;;;;;9.50;8.50;;;;;17.28;54.48;101920.22;5119158;27;45278;-63
2022/05/27 07:46:19;;;;;;;;;8.50;8.00;;;;;17.34;54.55;101920.03;5116893;27;45375;-64
2022/05/27 07:48:45;;;;;;;;;11.25;9.00;;;;;17.42;54.28;101911.78;5115510;27;46162;-63
2022/05/27 07:51:11;;;;;;;;;10.00;8.00;;;;;17.53;54.29;101914.94;5118528;27;69045;-63
2022/05/27 07:53:38;;;;;;;;;11.25;8.00;;;;;17.58;53.99;101907.69;5118848;27;45345;-63
2022/05/27 07:56:05;;;;;;;;;9.50;9.00;;;;;17.65;54.06;101910.94;5114007;27;45267;-63
2022/05/27 07:58:30;;;;;;;;;11.50;9.75;;;;;17.72;53.94;101916.88;5111036;27;46312;-63
2022/05/27 08:00:55;;;;;;;;;12.75;8.50;;;;;17.76;53.72;101916.69;5118804;27;62251;-63
2022/05/27 08:03:21;;;;;;;;;16.00;10.25;;;;;17.79;53.54;101913.06;5115814;27;64006;-63
2022/05/27 08:05:47;;;;;;;;;11.25;8.00;;;;;17.77;53.64;101913.13;5103817;27;45248;-63
2022/05/27 08:08:13;;;;;;;;;15.50;9.00;;;;;17.73;53.51;101914.16;5115686;27;47141;-63
2022/05/27 08:10:40;;;;;;;;;14.25;11.00;;;;;17.72;53.94;101916.88;5117041;27;45237;-63
2022/05/27 08:13:06;;;;;;;;;10.25;9.75;;;;;17.75;53.63;101919.41;5116790;27;45298;-63
2022/05/27 08:15:32;;;;;;;;;12.50;7.25;;;;;17.71;53.58;101923.94;5121527;27;45383;-63
2022/05/27 08:17:58;;;;;;;;;8.00;7.50;;;;;17.67;53.71;101919.72;5122427;27;46167;-63
2022/05/27 08:20:26;;;;;;;;;16.75;14.25;;;;;17.71;53.70;101925.75;5120306;27;46366;-63
2022/05/27 08:22:53;;;;;;;;;11.00;8.00;;;;;17.73;53.48;101924.75;5118611;27;45560;-63
2022/05/27 08:25:20;;;;;;;;;5.75;5.25;;;;;17.67;53.22;101922.34;5111805;27;45440;-63
2022/05/27 08:27:45;;;;;;;;;8.50;8.00;;;;;17.61;53.52;101928.72;5099060;27;45480;-64
2022/05/27 08:30:14;;;;;;;;;6.25;6.25;;;;;17.58;53.99;101925.31;5116367;27;68805;-63
2022/05/27 08:32:39;;;;;;;;;10.00;9.25;;;;;17.57;53.73;101920.97;5109993;27;45330;-63
2022/05/27 08:38:02;;;;;;;;;6.50;5.75;;;;;17.53;54.12;101906.09;5114997;27;45895;-63
2022/05/27 08:40:45;;;;;;;;;13.00;8.50;;;;;17.68;54.05;101921.41;5096968;27;45808;-63
2022/05/27 08:43:27;;;;;;;;;7.25;6.25;;;;;17.73;53.69;101919.47;5106709;27;45393;-65
2022/05/27 08:46:02;;;;;;;;;6.50;4.25;;;;;17.75;53.87;101922.91;5096958;27;45363;-63
2022/05/27 08:48:31;;;;;;;;;7.00;5.75;;;;;17.74;53.82;101913.25;5114760;27;45464;-63
2022/05/27 08:51:01;;;;;;;;;7.50;5.75;;;;;17.78;54.05;101914.84;5096157;27;45273;-63
2022/05/27 08:53:45;;;;;;;;;7.25;7.00;;;;;17.86;53.73;101925.16;5092829;27;45342;-63
2022/05/27 08:59:41;;;;;;;;;7.25;4.75;;;;;17.83;54.31;101920.00;5117831;27;45323;-63
2022/05/27 09:02:33;;;;;;;;;10.25;6.75;;;;;17.84;54.40;101919.91;5100877;27;45280;-64
2022/05/27 09:05:15;;;;;;;;;6.00;4.75;;;;;17.90;54.47;101917.97;5118093;27;45481;-64
2022/05/27 09:08:05;;;;;;;;;8.00;5.75;;;;;17.96;54.39;101928.34;5087155;27;46552;-64
2022/05/27 09:10:50;;;;;;;;;7.00;5.00;;;;;18.01;54.30;101926.38;5115066;27;46135;-63
2022/05/27 09:13:24;;;;;;;;;10.75;5.00;;;;;18.06;53.92;101932.38;5102826;27;45379;-63
2022/05/27 09:15:57;;;;;;;;;4.00;4.00;;;;;18.09;54.12;101928.72;5097194;27;45248;-64
2022/05/27 09:18:36;;;;;;;;;6.50;4.25;;;;;18.11;53.87;101930.38;5098257;27;45620;-63
2022/05/27 09:21:22;;;;;;;;;9.25;5.25;;;;;18.12;53.52;101934.75;5099199;27;45412;-64
2022/05/27 09:24:16;;;;;;;;;7.75;5.00;;;;;18.13;54.01;101931.19;5107240;27;45753;-63
2022/05/27 09:26:43;;;;;;;;;9.00;6.25;;;;;18.13;53.91;101923.25;5095543;27;45332;-63
2022/05/27 09:29:39;;;;;;;;;6.25;5.25;;;;;18.17;54.11;101927.50;5116091;27;45437;-63
2022/05/27 09:32:44;;;;;;;;;6.00;4.50;;;;;18.26;54.21;101922.75;5112961;27;46313;-63
2022/05/27 09:35:45;;;;;;;;;4.00;4.00;;;;;18.27;54.16;101925.31;5100643;27;46084;-64
2022/05/27 09:38:15;;;;;;;;;5.25;4.75;;;;;18.25;53.98;101923.66;5097574;27;45406;-63
2022/05/27 09:40:46;;;;;;;;;9.50;4.00;;;;;18.26;54.27;101922.75;5089302;27;45370;-64
2022/05/27 09:43:24;;;;;;;;;4.00;4.00;;;;;18.29;53.81;101923.50;5100328;27;46394;-64
2022/05/27 09:45:54;;;;;;;;;6.50;4.50;;;;;18.31;54.13;101923.41;5114154;27;45365;-63
2022/05/27 09:48:19;;;;;;;;;2.25;2.25;;;;;18.36;54.12;101924.97;5100615;27;45255;-63
2022/05/27 09:50:47;;;;;;;;;6.25;5.00;;;;;18.45;54.06;101921.09;5120117;27;66338;-63
2022/05/27 09:53:20;;;;;;;;;4.75;4.00;;;;;18.58;54.01;101922.28;5120890;27;46373;-63
2022/05/27 09:55:52;;;;;;;;;5.00;4.25;;;;;18.70;53.93;101926.22;5120807;27;45484;-64
2022/05/27 09:58:29;;;;;;;;;6.50;6.50;;;;;18.82;53.85;101930.16;5114131;27;45302;-63
2022/05/27 10:00:55;;;;;;;;;6.75;6.25;;;;;18.86;53.56;101925.63;5115322;27;45407;-63
2022/05/27 10:03:23;;;;;;;;;7.00;7.00;;;;;18.96;53.59;101929.56;5119112;27;46898;-63
2022/05/27 10:06:03;;;;;;;;;6.00;5.00;;;;;19.06;53.29;101925.59;5113680;27;45314;-65
2022/05/27 10:08:35;;;;;;;;;11.25;7.00;;;;;19.22;53.05;101920.47;5113275;27;45324;-63
2022/05/27 10:11:20;;;;;;;;;5.50;3.50;;;;;19.47;52.96;101919.38;5120557;27;45528;-65
2022/05/27 10:13:47;;;;;;;;;9.00;6.75;;;;;19.76;52.25;101911.88;5110642;27;46304;-63
2022/05/27 10:16:26;;;;;;;;;6.00;4.00;;;;;20.09;51.77;101910.28;5113731;27;45809;-63
2022/05/27 10:19:14;;;;;;;;;1.50;1.50;;;;;20.37;51.10;101897.44;5116207;27;45496;-63
2022/05/27 10:22:01;;;;;;;;;7.00;5.00;;;;;21.06;50.95;101888.63;5112616;27;45485;-64
2022/05/27 10:24:39;;;;;;;;;7.25;6.00;;;;;21.94;48.97;101889.22;5110553;27;46162;-63
2022/05/27 10:27:17;;;;;;;;;5.50;5.00;;;;;22.29;48.25;101894.34;5117358;27;45223;-64
2022/05/27 10:29:58;;;;;;;;;2.50;2.50;;;;;22.40;47.62;101888.38;5115058;27;45413;-63
2022/05/27 10:32:31;;;;;;;;;6.50;4.25;;;;;22.33;47.43;101891.41;5116826;27;45523;-63
2022/05/27 10:34:58;;;;;;;;;11.50;8.25;;;;;22.26;47.50;101894.50;5115810;27;46260;-63
2022/05/27 10:37:40;;;;;;;;;9.00;6.75;;;;;22.11;47.51;101901.56;5113670;27;45427;-61
2022/05/27 10:40:24;;;;;;;;;6.00;4.75;;;;;22.02;47.93;101899.44;5097194;27;45516;-63
2022/05/27 10:43:05;;;;;;;;;6.00;4.00;;;;;21.93;47.79;101900.81;5100623;27;45506;-63
2022/05/27 10:45:32;;;;;;;;;5.75;5.75;;;;;21.76;47.76;101897.28;5113438;27;46256;-65
2022/05/27 10:48:19;;;;;;;;;5.00;3.75;;;;;21.64;47.74;101902.41;5115188;27;45815;-63
2022/05/27 10:50:54;;;;;;;;;6.50;5.00;;;;;21.54;48.09;101897.59;5120247;27;45332;-63
2022/05/27 10:53:45;;;;;;;;;6.25;5.00;;;;;21.41;47.96;101905.38;5097211;27;45375;-63
2022/05/27 11:02:04;;;;;;;;;6.50;5.25;;;;;21.28;48.34;101906.97;5113654;27;45370;-63
2022/05/27 11:02:40;;;;;;;;;5.50;5.00;;;;;20.92;48.67;101902.66;5114766;27;45214;-63
2022/05/27 11:05:08;;;;;;;;;8.75;7.50;;;;;20.82;48.97;101904.94;5121951;27;45228;-63
2022/05/27 11:07:46;;;;;;;;;7.50;6.00;;;;;20.77;49.18;101906.09;5117616;27;45250;-63
2022/05/27 11:10:32;;;;;;;;;10.25;5.25;;;;;20.76;49.31;101907.03;5116889;27;45344;-64
2022/05/27 11:16:04;;;;;;;;;3.75;3.75;;;;;20.79;49.41;101899.75;5107552;27;45299;-63
2022/05/27 11:18:54;;;;;;;;;5.50;4.75;;;;;20.77;49.31;101900.75;5094388;27;46538;-63
2022/05/27 11:21:25;;;;;;;;;4.00;4.00;;;;;20.72;49.26;101903.69;5120678;27;45303;-63
2022/05/27 11:24:07;;;;;;;;;7.50;5.50;;;;;20.67;49.61;101901.25;5121915;27;45270;-64
2022/05/27 11:26:43;;;;;;;;;7.00;5.00;;;;;20.61;49.57;101905.97;5118384;27;46448;-63
2022/05/27 11:29:26;;;;;;;;;7.25;4.50;;;;;20.54;49.54;101900.13;5104164;27;46402;-63
2022/05/27 11:32:01;;;;;;;;;7.50;5.00;;;;;20.48;49.69;101903.06;5116875;27;45774;-64
2022/05/27 11:34:42;;;;;;;;;5.50;5.50;;;;;20.43;49.60;101897.13;5120544;27;45478;-63
2022/05/27 11:37:46;;;;;;;;;7.25;6.25;;;;;20.40;49.84;101889.31;5103123;27;45350;-63
2022/05/27 11:40:47;;;;;;;;;6.00;6.00;;;;;20.41;49.99;101889.22;5085121;27;45371;-63
2022/05/27 11:43:31;;;;;;;;;9.75;7.75;;;;;20.47;49.68;101880.94;5116339;27;45899;-63
2022/05/27 11:46:11;;;;;;;;;7.25;6.00;;;;;20.53;49.85;101881.59;5122595;27;45520;-63
2022/05/27 11:48:45;;;;;;;;;9.75;6.75;;;;;20.56;49.72;101882.28;5104212;27;45580;-63
2022/05/27 11:51:17;;;;;;;;;10.00;6.50;;;;;20.52;49.52;101885.16;5121235;27;45362;-63
2022/05/27 11:53:59;;;;;;;;;5.50;4.50;;;;;20.43;49.55;101887.38;5102905;27;45488;-63
2022/05/27 11:56:27;;;;;;;;;6.25;6.00;;;;;20.35;49.74;101881.56;5118072;27;45377;-63
2022/05/27 11:59:02;;;;;;;;;7.00;6.00;;;;;20.34;49.75;101881.63;5118737;27;45484;-63
2022/05/27 12:01:38;;;;;;;;;7.25;6.00;;;;;20.37;49.77;101876.19;5096732;27;45331;-63
2022/05/27 12:04:21;;;;;;;;;6.00;4.00;;;;;20.46;50.00;101878.38;5116011;27;45350;-63
2022/05/27 12:07:10;;;;;;;;;9.75;7.00;;;;;20.53;49.70;101873.59;5115205;27;45340;-64